sensor_id;sensor_type;location;lat;lon;timestamp;P1;durP1;ratioP1;P2;durP2;ratioP2
56343;SDS011;42245;42.058;24.700;2023-04-01T00:01:04;7.43;;;2.55;;
56343;SDS011;42245;42.058;24.700;2023-04-01T00:03:30;4.35;;;2.17;;
56343;SDS011;42245;42.058;24.700;2023-04-01T00:05:58;5.05;;;2.60;;
56343;SDS011;42245;42.058;24.700;2023-04-01T00:08:24;5.38;;;2.85;;
56343;SDS011;42245;42.058;24.700;2023-04-01T00:10:51;5.63;;;2.70;;
56343;SDS011;42245;42.058;24.700;2023-04-01T00:13:16;3.75;;;2.65;;
56343;SDS011;42245;42.058;24.700;2023-04-01T00:15:42;4.13;;;2.88;;
56343;SDS011;42245;42.058;24.700;2023-04-01T00:18:08;9.07;;;3.15;;
56343;SDS011;42245;42.058;24.700;2023-04-01T00:20:34;7.68;;;3.30;;
56343;SDS011;42245;42.058;24.700;2023-04-01T00:23:00;8.98;;;3.72;;
56343;SDS011;42245;42.058;24.700;2023-04-01T00:25:25;7.05;;;3.70;;
56343;SDS011;42245;42.058;24.700;2023-04-01T00:27:51;12.32;;;4.07;;
56343;SDS011;42245;42.058;24.700;2023-04-01T00:30:17;9.25;;;3.88;;
56343;SDS011;42245;42.058;24.700;2023-04-01T00:32:42;10.45;;;4.40;;
56343;SDS011;42245;42.058;24.700;2023-04-01T00:35:08;12.60;;;4.25;;
56343;SDS011;42245;42.058;24.700;2023-04-01T00:37:34;10.20;;;4.60;;
56343;SDS011;42245;42.058;24.700;2023-04-01T00:40:02;7.85;;;4.72;;
56343;SDS011;42245;42.058;24.700;2023-04-01T00:42:29;9.98;;;4.65;;
56343;SDS011;42245;42.058;24.700;2023-04-01T00:44:54;9.40;;;4.82;;
56343;SDS011;42245;42.058;24.700;2023-04-01T00:47:20;6.32;;;4.20;;
56343;SDS011;42245;42.058;24.700;2023-04-01T00:49:46;9.63;;;4.93;;
56343;SDS011;42245;42.058;24.700;2023-04-01T00:52:16;6.70;;;4.35;;
56343;SDS011;42245;42.058;24.700;2023-04-01T00:54:44;9.32;;;4.95;;
56343;SDS011;42245;42.058;24.700;2023-04-01T00:57:25;10.82;;;4.75;;
56343;SDS011;42245;42.058;24.700;2023-04-01T00:59:53;8.80;;;5.00;;
56343;SDS011;42245;42.058;24.700;2023-04-01T01:02:19;10.57;;;4.97;;
56343;SDS011;42245;42.058;24.700;2023-04-01T01:04:45;13.25;;;4.70;;
56343;SDS011;42245;42.058;24.700;2023-04-01T01:36:59;10.05;;;5.60;;
56343;SDS011;42245;42.058;24.700;2023-04-01T01:39:28;9.32;;;5.25;;
56343;SDS011;42245;42.058;24.700;2023-04-01T01:41:56;10.90;;;5.85;;
56343;SDS011;42245;42.058;24.700;2023-04-01T01:44:22;9.27;;;5.30;;
56343;SDS011;42245;42.058;24.700;2023-04-01T01:46:49;9.52;;;5.60;;
56343;SDS011;42245;42.058;24.700;2023-04-01T01:49:15;11.07;;;6.30;;
56343;SDS011;42245;42.058;24.700;2023-04-01T01:51:41;14.70;;;6.72;;
56343;SDS011;42245;42.058;24.700;2023-04-01T01:54:11;10.13;;;6.68;;
56343;SDS011;42245;42.058;24.700;2023-04-01T01:56:38;9.00;;;5.25;;
56343;SDS011;42245;42.058;24.700;2023-04-01T01:59:04;9.32;;;5.10;;
56343;SDS011;42245;42.058;24.700;2023-04-01T02:01:35;13.15;;;5.30;;
56343;SDS011;42245;42.058;24.700;2023-04-01T02:04:04;13.68;;;5.30;;
56343;SDS011;42245;42.058;24.700;2023-04-01T02:06:30;8.43;;;5.38;;
56343;SDS011;42245;42.058;24.700;2023-04-01T02:09:01;12.43;;;5.65;;
56343;SDS011;42245;42.058;24.700;2023-04-01T02:11:30;11.27;;;5.50;;
56343;SDS011;42245;42.058;24.700;2023-04-01T02:14:03;9.40;;;4.68;;
56343;SDS011;42245;42.058;24.700;2023-04-01T02:16:36;8.05;;;4.78;;
56343;SDS011;42245;42.058;24.700;2023-04-01T02:19:05;11.88;;;4.93;;
56343;SDS011;42245;42.058;24.700;2023-04-01T02:21:32;10.02;;;5.38;;
56343;SDS011;42245;42.058;24.700;2023-04-01T02:23:58;9.80;;;5.10;;
56343;SDS011;42245;42.058;24.700;2023-04-01T02:26:26;10.63;;;5.60;;
56343;SDS011;42245;42.058;24.700;2023-04-01T02:28:52;11.70;;;5.45;;
56343;SDS011;42245;42.058;24.700;2023-04-01T02:31:19;9.43;;;5.43;;
56343;SDS011;42245;42.058;24.700;2023-04-01T02:33:45;8.95;;;4.80;;
56343;SDS011;42245;42.058;24.700;2023-04-01T02:36:14;10.48;;;6.07;;
56343;SDS011;42245;42.058;24.700;2023-04-01T02:38:41;9.75;;;5.43;;
56343;SDS011;42245;42.058;24.700;2023-04-01T02:41:08;10.43;;;5.18;;
56343;SDS011;42245;42.058;24.700;2023-04-01T02:43:33;13.13;;;5.85;;
56343;SDS011;42245;42.058;24.700;2023-04-01T02:45:59;13.27;;;5.97;;
56343;SDS011;42245;42.058;24.700;2023-04-01T02:48:25;9.60;;;5.28;;
56343;SDS011;42245;42.058;24.700;2023-04-01T02:50:50;10.68;;;4.82;;
56343;SDS011;42245;42.058;24.700;2023-04-01T02:53:16;10.63;;;5.38;;
56343;SDS011;42245;42.058;24.700;2023-04-01T02:55:42;10.18;;;5.22;;
56343;SDS011;42245;42.058;24.700;2023-04-01T02:58:07;9.93;;;5.40;;
56343;SDS011;42245;42.058;24.700;2023-04-01T03:00:32;7.25;;;4.80;;
56343;SDS011;42245;42.058;24.700;2023-04-01T03:02:58;8.95;;;5.20;;
56343;SDS011;42245;42.058;24.700;2023-04-01T03:05:24;9.57;;;5.20;;
56343;SDS011;42245;42.058;24.700;2023-04-01T03:07:49;10.07;;;4.53;;
56343;SDS011;42245;42.058;24.700;2023-04-01T03:10:15;8.75;;;5.75;;
56343;SDS011;42245;42.058;24.700;2023-04-01T03:12:40;15.88;;;5.57;;
56343;SDS011;42245;42.058;24.700;2023-04-01T03:15:06;11.73;;;5.13;;
56343;SDS011;42245;42.058;24.700;2023-04-01T03:17:34;8.65;;;5.10;;
56343;SDS011;42245;42.058;24.700;2023-04-01T03:19:59;10.02;;;5.10;;
56343;SDS011;42245;42.058;24.700;2023-04-01T03:22:25;9.18;;;5.43;;
56343;SDS011;42245;42.058;24.700;2023-04-01T03:24:50;18.58;;;6.15;;
56343;SDS011;42245;42.058;24.700;2023-04-01T03:27:16;9.85;;;5.72;;
56343;SDS011;42245;42.058;24.700;2023-04-01T03:29:41;11.05;;;5.47;;
56343;SDS011;42245;42.058;24.700;2023-04-01T03:32:07;13.40;;;7.05;;
56343;SDS011;42245;42.058;24.700;2023-04-01T03:34:32;11.02;;;5.93;;
56343;SDS011;42245;42.058;24.700;2023-04-01T03:36:58;11.32;;;6.50;;
56343;SDS011;42245;42.058;24.700;2023-04-01T03:39:23;9.27;;;6.28;;
56343;SDS011;42245;42.058;24.700;2023-04-01T03:41:50;9.50;;;5.47;;
56343;SDS011;42245;42.058;24.700;2023-04-01T03:44:15;8.82;;;5.55;;
56343;SDS011;42245;42.058;24.700;2023-04-01T03:46:41;9.32;;;5.55;;
56343;SDS011;42245;42.058;24.700;2023-04-01T03:49:07;8.82;;;4.95;;
56343;SDS011;42245;42.058;24.700;2023-04-01T03:51:37;9.60;;;4.90;;
56343;SDS011;42245;42.058;24.700;2023-04-01T03:54:08;21.17;;;5.43;;
56343;SDS011;42245;42.058;24.700;2023-04-01T03:56:34;11.63;;;5.15;;
56343;SDS011;42245;42.058;24.700;2023-04-01T03:59:04;18.15;;;5.90;;
56343;SDS011;42245;42.058;24.700;2023-04-01T04:01:31;16.60;;;7.85;;
56343;SDS011;42245;42.058;24.700;2023-04-01T04:03:56;13.02;;;5.80;;
56343;SDS011;42245;42.058;24.700;2023-04-01T04:06:22;16.23;;;5.03;;
56343;SDS011;42245;42.058;24.700;2023-04-01T04:08:49;15.45;;;5.00;;
56343;SDS011;42245;42.058;24.700;2023-04-01T04:11:14;13.07;;;4.97;;
56343;SDS011;42245;42.058;24.700;2023-04-01T04:13:40;14.32;;;5.05;;
56343;SDS011;42245;42.058;24.700;2023-04-01T04:16:06;10.68;;;4.55;;
56343;SDS011;42245;42.058;24.700;2023-04-01T04:18:32;22.17;;;5.20;;
56343;SDS011;42245;42.058;24.700;2023-04-01T04:20:57;9.63;;;4.63;;
56343;SDS011;42245;42.058;24.700;2023-04-01T04:23:23;15.35;;;4.70;;
56343;SDS011;42245;42.058;24.700;2023-04-01T04:28:30;13.88;;;4.75;;
56343;SDS011;42245;42.058;24.700;2023-04-01T04:30:56;22.90;;;6.00;;
56343;SDS011;42245;42.058;24.700;2023-04-01T04:33:22;14.48;;;5.03;;
56343;SDS011;42245;42.058;24.700;2023-04-01T04:35:48;16.10;;;5.25;;
56343;SDS011;42245;42.058;24.700;2023-04-01T04:38:13;10.10;;;5.05;;
56343;SDS011;42245;42.058;24.700;2023-04-01T04:40:40;13.43;;;5.35;;
56343;SDS011;42245;42.058;24.700;2023-04-01T04:43:06;10.45;;;5.50;;
56343;SDS011;42245;42.058;24.700;2023-04-01T04:45:31;10.85;;;5.13;;
56343;SDS011;42245;42.058;24.700;2023-04-01T04:47:57;10.00;;;4.80;;
56343;SDS011;42245;42.058;24.700;2023-04-01T04:50:23;9.30;;;5.57;;
56343;SDS011;42245;42.058;24.700;2023-04-01T04:52:50;17.67;;;6.07;;
56343;SDS011;42245;42.058;24.700;2023-04-01T04:55:15;10.73;;;5.32;;
56343;SDS011;42245;42.058;24.700;2023-04-01T04:57:41;13.18;;;5.50;;
56343;SDS011;42245;42.058;24.700;2023-04-01T05:00:06;11.82;;;5.57;;
56343;SDS011;42245;42.058;24.700;2023-04-01T05:02:33;12.48;;;6.47;;
56343;SDS011;42245;42.058;24.700;2023-04-01T05:04:58;17.83;;;8.35;;
56343;SDS011;42245;42.058;24.700;2023-04-01T05:07:24;17.23;;;9.27;;
56343;SDS011;42245;42.058;24.700;2023-04-01T05:09:49;13.85;;;8.30;;
56343;SDS011;42245;42.058;24.700;2023-04-01T05:12:15;19.15;;;9.27;;
56343;SDS011;42245;42.058;24.700;2023-04-01T05:14:40;19.23;;;8.88;;
56343;SDS011;42245;42.058;24.700;2023-04-01T05:17:09;18.63;;;9.60;;
56343;SDS011;42245;42.058;24.700;2023-04-01T05:19:36;16.40;;;9.02;;
56343;SDS011;42245;42.058;24.700;2023-04-01T05:22:01;14.32;;;7.28;;
56343;SDS011;42245;42.058;24.700;2023-04-01T05:24:27;22.10;;;9.30;;
56343;SDS011;42245;42.058;24.700;2023-04-01T05:26:52;13.30;;;8.80;;
56343;SDS011;42245;42.058;24.700;2023-04-01T05:29:18;18.75;;;9.80;;
56343;SDS011;42245;42.058;24.700;2023-04-01T05:31:43;31.27;;;10.98;;
56343;SDS011;42245;42.058;24.700;2023-04-01T05:34:09;21.52;;;10.32;;
56343;SDS011;42245;42.058;24.700;2023-04-01T05:36:35;19.63;;;10.00;;
56343;SDS011;42245;42.058;24.700;2023-04-01T05:39:01;17.15;;;10.25;;
56343;SDS011;42245;42.058;24.700;2023-04-01T05:41:26;17.83;;;9.68;;
56343;SDS011;42245;42.058;24.700;2023-04-01T05:43:52;26.42;;;12.95;;
56343;SDS011;42245;42.058;24.700;2023-04-01T05:46:17;71.85;;;20.52;;
56343;SDS011;42245;42.058;24.700;2023-04-01T05:48:43;32.63;;;19.63;;
56343;SDS011;42245;42.058;24.700;2023-04-01T05:51:12;29.83;;;18.45;;
56343;SDS011;42245;42.058;24.700;2023-04-01T05:53:39;30.42;;;17.30;;
56343;SDS011;42245;42.058;24.700;2023-04-01T05:56:04;30.60;;;18.40;;
56343;SDS011;42245;42.058;24.700;2023-04-01T05:58:30;30.65;;;18.20;;
56343;SDS011;42245;42.058;24.700;2023-04-01T06:01:06;28.40;;;16.60;;
56343;SDS011;42245;42.058;24.700;2023-04-01T06:03:33;29.42;;;15.68;;
56343;SDS011;42245;42.058;24.700;2023-04-01T06:05:59;25.35;;;15.50;;
56343;SDS011;42245;42.058;24.700;2023-04-01T06:08:26;24.33;;;15.48;;
56343;SDS011;42245;42.058;24.700;2023-04-01T06:30:47;19.63;;;11.27;;
56343;SDS011;42245;42.058;24.700;2023-04-01T06:33:28;18.52;;;10.88;;
56343;SDS011;42245;42.058;24.700;2023-04-01T06:36:13;33.67;;;16.33;;
56343;SDS011;42245;42.058;24.700;2023-04-01T06:47:03;30.08;;;16.80;;
56343;SDS011;42245;42.058;24.700;2023-04-01T06:57:42;27.10;;;15.23;;
56343;SDS011;42245;42.058;24.700;2023-04-01T07:03:02;23.65;;;13.38;;
56343;SDS011;42245;42.058;24.700;2023-04-01T07:05:31;19.58;;;11.95;;
56343;SDS011;42245;42.058;24.700;2023-04-01T07:07:58;23.45;;;13.80;;
56343;SDS011;42245;42.058;24.700;2023-04-01T07:10:34;36.47;;;19.20;;
56343;SDS011;42245;42.058;24.700;2023-04-01T07:13:03;25.95;;;15.05;;
56343;SDS011;42245;42.058;24.700;2023-04-01T07:15:36;25.67;;;12.68;;
56343;SDS011;42245;42.058;24.700;2023-04-01T07:18:05;26.88;;;16.05;;
56343;SDS011;42245;42.058;24.700;2023-04-01T07:20:36;20.05;;;11.90;;
56343;SDS011;42245;42.058;24.700;2023-04-01T07:23:04;18.60;;;10.48;;
56343;SDS011;42245;42.058;24.700;2023-04-01T07:25:42;18.48;;;7.78;;
56343;SDS011;42245;42.058;24.700;2023-04-01T07:28:13;28.85;;;8.63;;
56343;SDS011;42245;42.058;24.700;2023-04-01T07:30:51;27.15;;;9.43;;
56343;SDS011;42245;42.058;24.700;2023-04-01T07:33:25;15.10;;;8.82;;
56343;SDS011;42245;42.058;24.700;2023-04-01T07:36:08;19.55;;;9.38;;
56343;SDS011;42245;42.058;24.700;2023-04-01T07:47:05;12.75;;;7.32;;
56343;SDS011;42245;42.058;24.700;2023-04-01T07:52:06;16.70;;;9.60;;
56343;SDS011;42245;42.058;24.700;2023-04-01T08:00:27;15.05;;;7.28;;
56343;SDS011;42245;42.058;24.700;2023-04-01T08:05:58;21.95;;;11.85;;
56343;SDS011;42245;42.058;24.700;2023-04-01T08:10:59;25.58;;;9.80;;
56343;SDS011;42245;42.058;24.700;2023-04-01T08:21:28;34.42;;;19.05;;
56343;SDS011;42245;42.058;24.700;2023-04-01T08:23:58;21.40;;;12.20;;
56343;SDS011;42245;42.058;24.700;2023-04-01T08:26:39;14.52;;;9.25;;
56343;SDS011;42245;42.058;24.700;2023-04-01T08:29:11;41.67;;;20.08;;
56343;SDS011;42245;42.058;24.700;2023-04-01T08:34:32;15.48;;;9.82;;
56343;SDS011;42245;42.058;24.700;2023-04-01T08:37:11;18.30;;;9.60;;
56343;SDS011;42245;42.058;24.700;2023-04-01T08:39:45;21.58;;;10.68;;
56343;SDS011;42245;42.058;24.700;2023-04-01T08:42:18;44.92;;;21.60;;
56343;SDS011;42245;42.058;24.700;2023-04-01T08:45:02;21.75;;;10.35;;
56343;SDS011;42245;42.058;24.700;2023-04-01T09:04:14;19.67;;;8.63;;
56343;SDS011;42245;42.058;24.700;2023-04-01T09:09:25;22.60;;;12.50;;
56343;SDS011;42245;42.058;24.700;2023-04-01T09:17:43;31.05;;;20.73;;
56343;SDS011;42245;42.058;24.700;2023-04-01T09:23:10;62.28;;;41.53;;
56343;SDS011;42245;42.058;24.700;2023-04-01T09:28:37;34.47;;;14.13;;
56343;SDS011;42245;42.058;24.700;2023-04-01T09:47:51;12.80;;;7.20;;
56343;SDS011;42245;42.058;24.700;2023-04-01T09:52:38;22.33;;;11.75;;
56343;SDS011;42245;42.058;24.700;2023-04-01T10:00:55;20.83;;;8.77;;
56343;SDS011;42245;42.058;24.700;2023-04-01T10:26:25;16.90;;;8.65;;
56343;SDS011;42245;42.058;24.700;2023-04-01T10:59:15;20.17;;;10.20;;
56343;SDS011;42245;42.058;24.700;2023-04-01T11:15:09;12.63;;;9.02;;
56343;SDS011;42245;42.058;24.700;2023-04-01T11:36:25;21.10;;;9.05;;
56343;SDS011;42245;42.058;24.700;2023-04-01T11:58:49;21.42;;;11.93;;
56343;SDS011;42245;42.058;24.700;2023-04-01T12:10:33;15.48;;;8.80;;
56343;SDS011;42245;42.058;24.700;2023-04-01T12:13:30;13.13;;;8.10;;
56343;SDS011;42245;42.058;24.700;2023-04-01T12:31:53;13.57;;;7.25;;
56343;SDS011;42245;42.058;24.700;2023-04-01T12:51:05;10.05;;;5.93;;
56343;SDS011;42245;42.058;24.700;2023-04-01T12:56:14;11.70;;;6.10;;
56343;SDS011;42245;42.058;24.700;2023-04-01T13:04:22;12.43;;;6.53;;
56343;SDS011;42245;42.058;24.700;2023-04-01T13:12:35;11.48;;;6.20;;
56343;SDS011;42245;42.058;24.700;2023-04-01T13:15:09;11.20;;;7.25;;
56343;SDS011;42245;42.058;24.700;2023-04-01T13:20:22;15.13;;;5.95;;
56343;SDS011;42245;42.058;24.700;2023-04-01T13:28:34;11.30;;;6.55;;
56343;SDS011;42245;42.058;24.700;2023-04-01T13:31:08;13.57;;;6.60;;
56343;SDS011;42245;42.058;24.700;2023-04-01T13:42:16;22.98;;;9.68;;
56343;SDS011;42245;42.058;24.700;2023-04-01T13:45:00;20.73;;;9.38;;
56343;SDS011;42245;42.058;24.700;2023-04-01T13:52:45;22.63;;;9.93;;
56343;SDS011;42245;42.058;24.700;2023-04-01T13:55:55;21.27;;;10.52;;
56343;SDS011;42245;42.058;24.700;2023-04-01T14:15:08;20.90;;;13.07;;
56343;SDS011;42245;42.058;24.700;2023-04-01T14:39:29;15.40;;;10.25;;
56343;SDS011;42245;42.058;24.700;2023-04-01T14:50:54;8.90;;;6.07;;
56343;SDS011;42245;42.058;24.700;2023-04-01T14:55:52;12.02;;;6.70;;
56343;SDS011;42245;42.058;24.700;2023-04-01T14:58:21;8.27;;;5.50;;
56343;SDS011;42245;42.058;24.700;2023-04-01T15:03:38;8.82;;;5.18;;
56343;SDS011;42245;42.058;24.700;2023-04-01T15:14:04;9.00;;;5.43;;
56343;SDS011;42245;42.058;24.700;2023-04-01T15:30:57;9.02;;;5.50;;
56343;SDS011;42245;42.058;24.700;2023-04-01T15:38:57;7.72;;;4.85;;
56343;SDS011;42245;42.058;24.700;2023-04-01T15:44:24;12.90;;;6.40;;
56343;SDS011;42245;42.058;24.700;2023-04-01T15:55:32;7.78;;;4.80;;
56343;SDS011;42245;42.058;24.700;2023-04-01T15:58:06;9.05;;;4.40;;
56343;SDS011;42245;42.058;24.700;2023-04-01T16:00:44;8.80;;;5.35;;
56343;SDS011;42245;42.058;24.700;2023-04-01T16:20:19;8.20;;;5.10;;
56343;SDS011;42245;42.058;24.700;2023-04-01T16:23:13;8.07;;;5.43;;
56343;SDS011;42245;42.058;24.700;2023-04-01T16:25:51;9.88;;;5.20;;
56343;SDS011;42245;42.058;24.700;2023-04-01T16:41:36;9.23;;;6.53;;
56343;SDS011;42245;42.058;24.700;2023-04-01T16:44:13;10.68;;;6.50;;
56343;SDS011;42245;42.058;24.700;2023-04-01T16:46:44;14.20;;;6.57;;
56343;SDS011;42245;42.058;24.700;2023-04-01T16:49:31;11.77;;;6.85;;
56343;SDS011;42245;42.058;24.700;2023-04-01T17:05:35;8.95;;;5.20;;
56343;SDS011;42245;42.058;24.700;2023-04-01T17:08:09;49.90;;;30.38;;
56343;SDS011;42245;42.058;24.700;2023-04-01T17:11:12;7.13;;;3.33;;
56343;SDS011;42245;42.058;24.700;2023-04-01T17:13:52;6.18;;;3.90;;
56343;SDS011;42245;42.058;24.700;2023-04-01T17:22:01;4.38;;;3.30;;
56343;SDS011;42245;42.058;24.700;2023-04-01T17:35:23;7.80;;;2.78;;
56343;SDS011;42245;42.058;24.700;2023-04-01T17:38:06;4.30;;;2.47;;
56343;SDS011;42245;42.058;24.700;2023-04-01T17:41:16;3.67;;;2.58;;
56343;SDS011;42245;42.058;24.700;2023-04-01T17:46:38;2.67;;;2.10;;
56343;SDS011;42245;42.058;24.700;2023-04-01T17:51:43;2.00;;;1.80;;
56343;SDS011;42245;42.058;24.700;2023-04-01T18:18:35;6.50;;;2.28;;
56343;SDS011;42245;42.058;24.700;2023-04-01T18:24:24;1.55;;;1.20;;
56343;SDS011;42245;42.058;24.700;2023-04-01T18:27:03;2.70;;;1.67;;
56343;SDS011;42245;42.058;24.700;2023-04-01T18:29:36;3.22;;;1.38;;
56343;SDS011;42245;42.058;24.700;2023-04-01T18:38:07;1.65;;;1.45;;
56343;SDS011;42245;42.058;24.700;2023-04-01T18:54:33;1.65;;;1.02;;
56343;SDS011;42245;42.058;24.700;2023-04-01T18:56:58;1.75;;;1.15;;
56343;SDS011;42245;42.058;24.700;2023-04-01T18:59:55;2.80;;;1.40;;
56343;SDS011;42245;42.058;24.700;2023-04-01T19:02:38;1.40;;;1.25;;
56343;SDS011;42245;42.058;24.700;2023-04-01T19:11:11;2.30;;;1.30;;
56343;SDS011;42245;42.058;24.700;2023-04-01T19:19:29;3.20;;;1.30;;
56343;SDS011;42245;42.058;24.700;2023-04-01T19:22:20;1.77;;;1.38;;
56343;SDS011;42245;42.058;24.700;2023-04-01T19:25:05;9.02;;;1.30;;
56343;SDS011;42245;42.058;24.700;2023-04-01T19:27:45;1.83;;;1.20;;
56343;SDS011;42245;42.058;24.700;2023-04-01T19:35:27;1.50;;;1.40;;
56343;SDS011;42245;42.058;24.700;2023-04-01T19:38:12;1.67;;;1.30;;
56343;SDS011;42245;42.058;24.700;2023-04-01T19:40:46;1.58;;;1.35;;
56343;SDS011;42245;42.058;24.700;2023-04-01T19:43:50;2.13;;;1.30;;
56343;SDS011;42245;42.058;24.700;2023-04-01T19:46:36;2.00;;;1.30;;
56343;SDS011;42245;42.058;24.700;2023-04-01T19:49:09;1.60;;;1.23;;
56343;SDS011;42245;42.058;24.700;2023-04-01T20:02:55;3.30;;;1.50;;
56343;SDS011;42245;42.058;24.700;2023-04-01T20:15:47;1.83;;;1.23;;
56343;SDS011;42245;42.058;24.700;2023-04-01T20:21:44;1.65;;;1.40;;
56343;SDS011;42245;42.058;24.700;2023-04-01T20:26:40;2.15;;;1.52;;
56343;SDS011;42245;42.058;24.700;2023-04-01T20:32:32;2.78;;;2.20;;
56343;SDS011;42245;42.058;24.700;2023-04-01T20:34:59;3.08;;;1.88;;
56343;SDS011;42245;42.058;24.700;2023-04-01T20:37:38;2.95;;;1.92;;
56343;SDS011;42245;42.058;24.700;2023-04-01T20:46:00;2.42;;;1.70;;
56343;SDS011;42245;42.058;24.700;2023-04-01T20:51:14;3.35;;;2.40;;
56343;SDS011;42245;42.058;24.700;2023-04-01T20:53:53;3.00;;;2.13;;
56343;SDS011;42245;42.058;24.700;2023-04-01T21:01:52;2.40;;;1.80;;
56343;SDS011;42245;42.058;24.700;2023-04-01T21:04:22;4.00;;;2.25;;
56343;SDS011;42245;42.058;24.700;2023-04-01T21:06:58;2.85;;;2.10;;
56343;SDS011;42245;42.058;24.700;2023-04-01T21:12:28;2.50;;;2.00;;
56343;SDS011;42245;42.058;24.700;2023-04-01T21:15:07;1.95;;;1.85;;
56343;SDS011;42245;42.058;24.700;2023-04-01T21:20:15;3.60;;;2.00;;
56343;SDS011;42245;42.058;24.700;2023-04-01T21:23:18;3.25;;;2.17;;
56343;SDS011;42245;42.058;24.700;2023-04-01T21:28:33;2.20;;;2.00;;
56343;SDS011;42245;42.058;24.700;2023-04-01T21:31:03;2.00;;;1.80;;
56343;SDS011;42245;42.058;24.700;2023-04-01T21:33:37;4.95;;;2.05;;
56343;SDS011;42245;42.058;24.700;2023-04-01T21:36:16;3.40;;;2.15;;
56343;SDS011;42245;42.058;24.700;2023-04-01T21:44:33;2.70;;;2.33;;
56343;SDS011;42245;42.058;24.700;2023-04-01T22:02:09;3.10;;;2.00;;
56343;SDS011;42245;42.058;24.700;2023-04-01T22:07:21;2.90;;;2.10;;
56343;SDS011;42245;42.058;24.700;2023-04-01T22:12:31;2.85;;;2.00;;
56343;SDS011;42245;42.058;24.700;2023-04-01T22:15:08;2.20;;;2.00;;
56343;SDS011;42245;42.058;24.700;2023-04-01T22:17:51;2.30;;;2.10;;
56343;SDS011;42245;42.058;24.700;2023-04-01T22:21:20;3.13;;;2.00;;
56343;SDS011;42245;42.058;24.700;2023-04-01T22:43:00;1.63;;;1.52;;
56343;SDS011;42245;42.058;24.700;2023-04-01T22:45:35;1.55;;;1.45;;
56343;SDS011;42245;42.058;24.700;2023-04-01T22:56:07;1.45;;;1.30;;
56343;SDS011;42245;42.058;24.700;2023-04-01T22:58:38;1.20;;;1.10;;
56343;SDS011;42245;42.058;24.700;2023-04-01T23:01:11;1.75;;;1.38;;
56343;SDS011;42245;42.058;24.700;2023-04-01T23:03:46;1.27;;;1.08;;
56343;SDS011;42245;42.058;24.700;2023-04-01T23:06:57;2.20;;;1.20;;
56343;SDS011;42245;42.058;24.700;2023-04-01T23:09:08;2.92;;;1.10;;
56343;SDS011;42245;42.058;24.700;2023-04-01T23:17:12;1.10;;;1.00;;
56343;SDS011;42245;42.058;24.700;2023-04-01T23:23:11;2.28;;;1.20;;
56343;SDS011;42245;42.058;24.700;2023-04-01T23:29:07;0.93;;;0.90;;
56343;SDS011;42245;42.058;24.700;2023-04-01T23:31:36;1.08;;;0.98;;
56343;SDS011;42245;42.058;24.700;2023-04-01T23:39:29;1.08;;;0.98;;
56343;SDS011;42245;42.058;24.700;2023-04-01T23:42:00;2.80;;;1.92;;
56343;SDS011;42245;42.058;24.700;2023-04-01T23:44:29;1.05;;;0.95;;
56343;SDS011;42245;42.058;24.700;2023-04-01T23:46:54;1.33;;;0.88;;
56343;SDS011;42245;42.058;24.700;2023-04-01T23:49:21;1.45;;;1.10;;
56343;SDS011;42245;42.058;24.700;2023-04-01T23:52:10;0.90;;;0.90;;
56343;SDS011;42245;42.058;24.700;2023-04-01T23:54:43;1.13;;;0.90;;
56343;SDS011;42245;42.058;24.700;2023-04-01T23:57:13;1.17;;;1.05;;
56343;SDS011;42245;42.058;24.700;2023-04-01T23:59:40;1.48;;;1.20;;
